9NE8 weather

Brosius Field
Stapleton, Nebraska, United States

Public forecast

Using degrees Fahrenheit for public forecast. Weather courtesy of forecast.io.

Closest aviation weather report (METAR) to Brosius Field

Closest report is North Platte Regional Airport Lee Bird Field, 19.0 nm (35.1 km) SSW. Retrieved 2019/10/18 14:53 UTC (49 minutes ago):

KLBF 181453Z AUTO 30010KT 10SM CLR 10/03 A2947 RMK AO2 SLP968 T01000033 53008

Closest aviation forecast (TAF) to Brosius Field

Closest forecast is North Platte Regional Airport Lee Bird Field, 19.0 nm (35.1 km) SSW. Retrieved 2019/10/18 12:30 UTC (3 hours ago):

TAF KLBF 181129Z 1812/1912 15007KT P6SM SKC FM181600 30012G20KT P6SM FEW250 FM181900 33017G27KT P6SM FEW250 FM182300 34015KT P6SM BKN200 FM190200 33008KT P6SM SCT200